sensor_id;sensor_type;location;lat;lon;timestamp;pressure;altitude;pressure_sealevel;temperature
38114;BMP180;23926;53.222;6.354;2023-08-21T00:00:05;102235.00;;;18.40
38114;BMP180;23926;53.222;6.354;2023-08-21T00:02:30;102240.00;;;18.40
38114;BMP180;23926;53.222;6.354;2023-08-21T00:04:56;102235.00;;;18.40
38114;BMP180;23926;53.222;6.354;2023-08-21T00:07:22;102235.00;;;18.40
38114;BMP180;23926;53.222;6.354;2023-08-21T00:09:47;102240.00;;;18.30
38114;BMP180;23926;53.222;6.354;2023-08-21T00:12:13;102239.00;;;18.20
38114;BMP180;23926;53.222;6.354;2023-08-21T00:14:38;102241.00;;;18.10
38114;BMP180;23926;53.222;6.354;2023-08-21T00:17:04;102244.00;;;18.00
38114;BMP180;23926;53.222;6.354;2023-08-21T00:19:30;102241.00;;;17.90
38114;BMP180;23926;53.222;6.354;2023-08-21T00:21:55;102246.00;;;17.80
38114;BMP180;23926;53.222;6.354;2023-08-21T00:24:21;102236.00;;;17.80
38114;BMP180;23926;53.222;6.354;2023-08-21T00:26:46;102247.00;;;17.70
38114;BMP180;23926;53.222;6.354;2023-08-21T00:29:11;102231.00;;;17.70
38114;BMP180;23926;53.222;6.354;2023-08-21T00:31:37;102240.00;;;17.70
38114;BMP180;23926;53.222;6.354;2023-08-21T00:34:02;102239.00;;;17.70
38114;BMP180;23926;53.222;6.354;2023-08-21T00:36:28;102244.00;;;17.70
38114;BMP180;23926;53.222;6.354;2023-08-21T00:38:53;102233.00;;;17.80
38114;BMP180;23926;53.222;6.354;2023-08-21T00:41:19;102246.00;;;17.90
38114;BMP180;23926;53.222;6.354;2023-08-21T00:43:44;102240.00;;;18.00
38114;BMP180;23926;53.222;6.354;2023-08-21T00:46:10;102227.00;;;18.00
38114;BMP180;23926;53.222;6.354;2023-08-21T00:48:36;102231.00;;;18.10
38114;BMP180;23926;53.222;6.354;2023-08-21T00:51:02;102232.00;;;18.20
38114;BMP180;23926;53.222;6.354;2023-08-21T00:53:28;102234.00;;;18.20
38114;BMP180;23926;53.222;6.354;2023-08-21T00:55:53;102229.00;;;18.30
38114;BMP180;23926;53.222;6.354;2023-08-21T00:58:19;102233.00;;;18.30
38114;BMP180;23926;53.222;6.354;2023-08-21T01:00:45;102233.00;;;18.30
38114;BMP180;23926;53.222;6.354;2023-08-21T01:03:13;102230.00;;;18.40
38114;BMP180;23926;53.222;6.354;2023-08-21T01:05:38;102228.00;;;18.40
38114;BMP180;23926;53.222;6.354;2023-08-21T01:08:13;102241.00;;;18.40
38114;BMP180;23926;53.222;6.354;2023-08-21T01:15:38;102235.00;;;18.20
38114;BMP180;23926;53.222;6.354;2023-08-21T01:18:05;102233.00;;;18.10
38114;BMP180;23926;53.222;6.354;2023-08-21T01:20:32;102234.00;;;18.00
38114;BMP180;23926;53.222;6.354;2023-08-21T01:23:03;102246.00;;;18.00
38114;BMP180;23926;53.222;6.354;2023-08-21T01:25:29;102241.00;;;17.90
38114;BMP180;23926;53.222;6.354;2023-08-21T01:27:54;102241.00;;;17.80
38114;BMP180;23926;53.222;6.354;2023-08-21T01:30:20;102240.00;;;17.80
38114;BMP180;23926;53.222;6.354;2023-08-21T01:32:57;102227.00;;;17.80
38114;BMP180;23926;53.222;6.354;2023-08-21T01:35:24;102236.00;;;17.70
38114;BMP180;23926;53.222;6.354;2023-08-21T01:37:51;102238.00;;;17.70
38114;BMP180;23926;53.222;6.354;2023-08-21T01:40:21;102242.00;;;17.70
38114;BMP180;23926;53.222;6.354;2023-08-21T01:42:47;102241.00;;;17.80
38114;BMP180;23926;53.222;6.354;2023-08-21T01:45:12;102247.00;;;17.80
38114;BMP180;23926;53.222;6.354;2023-08-21T01:47:38;102240.00;;;17.90
38114;BMP180;23926;53.222;6.354;2023-08-21T01:50:03;102237.00;;;17.90
38114;BMP180;23926;53.222;6.354;2023-08-21T01:52:29;102245.00;;;17.80
38114;BMP180;23926;53.222;6.354;2023-08-21T01:54:54;102239.00;;;17.80
38114;BMP180;23926;53.222;6.354;2023-08-21T01:57:20;102236.00;;;17.70
38114;BMP180;23926;53.222;6.354;2023-08-21T01:59:45;102233.00;;;17.70
38114;BMP180;23926;53.222;6.354;2023-08-21T02:02:11;102239.00;;;17.60
38114;BMP180;23926;53.222;6.354;2023-08-21T02:04:36;102255.00;;;17.60
38114;BMP180;23926;53.222;6.354;2023-08-21T02:07:01;102251.00;;;17.50
38114;BMP180;23926;53.222;6.354;2023-08-21T02:09:27;102248.00;;;17.50
38114;BMP180;23926;53.222;6.354;2023-08-21T02:11:52;102250.00;;;17.40
38114;BMP180;23926;53.222;6.354;2023-08-21T02:14:18;102245.00;;;17.30
38114;BMP180;23926;53.222;6.354;2023-08-21T02:16:43;102247.00;;;17.30
38114;BMP180;23926;53.222;6.354;2023-08-21T02:19:08;102245.00;;;17.20
38114;BMP180;23926;53.222;6.354;2023-08-21T02:21:34;102237.00;;;17.10
38114;BMP180;23926;53.222;6.354;2023-08-21T02:24:01;102240.00;;;17.10
38114;BMP180;23926;53.222;6.354;2023-08-21T02:26:26;102235.00;;;17.00
38114;BMP180;23926;53.222;6.354;2023-08-21T02:28:52;102242.00;;;17.00
38114;BMP180;23926;53.222;6.354;2023-08-21T02:31:17;102237.00;;;17.00
38114;BMP180;23926;53.222;6.354;2023-08-21T02:33:43;102235.00;;;17.00
38114;BMP180;23926;53.222;6.354;2023-08-21T02:36:08;102242.00;;;17.00
38114;BMP180;23926;53.222;6.354;2023-08-21T02:38:35;102243.00;;;17.00
38114;BMP180;23926;53.222;6.354;2023-08-21T02:41:01;102240.00;;;17.00
38114;BMP180;23926;53.222;6.354;2023-08-21T02:43:26;102240.00;;;17.00
38114;BMP180;23926;53.222;6.354;2023-08-21T02:45:51;102247.00;;;17.00
38114;BMP180;23926;53.222;6.354;2023-08-21T02:48:17;102246.00;;;17.00
38114;BMP180;23926;53.222;6.354;2023-08-21T02:50:42;102243.00;;;17.00
38114;BMP180;23926;53.222;6.354;2023-08-21T02:53:08;102243.00;;;17.00
38114;BMP180;23926;53.222;6.354;2023-08-21T02:55:34;102249.00;;;17.10
38114;BMP180;23926;53.222;6.354;2023-08-21T02:57:59;102247.00;;;17.10
38114;BMP180;23926;53.222;6.354;2023-08-21T03:00:25;102244.00;;;17.10
38114;BMP180;23926;53.222;6.354;2023-08-21T03:02:50;102242.00;;;17.10
38114;BMP180;23926;53.222;6.354;2023-08-21T03:05:16;102240.00;;;17.10
38114;BMP180;23926;53.222;6.354;2023-08-21T03:07:41;102234.00;;;17.10
38114;BMP180;23926;53.222;6.354;2023-08-21T03:10:07;102239.00;;;17.10
38114;BMP180;23926;53.222;6.354;2023-08-21T03:12:33;102223.00;;;17.10
38114;BMP180;23926;53.222;6.354;2023-08-21T03:14:58;102240.00;;;17.10
38114;BMP180;23926;53.222;6.354;2023-08-21T03:17:24;102229.00;;;17.10
38114;BMP180;23926;53.222;6.354;2023-08-21T03:19:49;102233.00;;;17.10
38114;BMP180;23926;53.222;6.354;2023-08-21T03:22:15;102230.00;;;17.10
38114;BMP180;23926;53.222;6.354;2023-08-21T03:24:40;102232.00;;;17.00
38114;BMP180;23926;53.222;6.354;2023-08-21T03:27:06;102219.00;;;17.00
38114;BMP180;23926;53.222;6.354;2023-08-21T03:29:31;102230.00;;;16.90
38114;BMP180;23926;53.222;6.354;2023-08-21T03:31:57;102228.00;;;16.90
38114;BMP180;23926;53.222;6.354;2023-08-21T03:34:23;102231.00;;;16.90
38114;BMP180;23926;53.222;6.354;2023-08-21T03:36:48;102230.00;;;16.80
38114;BMP180;23926;53.222;6.354;2023-08-21T03:39:13;102218.00;;;16.70
38114;BMP180;23926;53.222;6.354;2023-08-21T03:41:39;102224.00;;;16.70
38114;BMP180;23926;53.222;6.354;2023-08-21T03:44:04;102220.00;;;16.70
38114;BMP180;23926;53.222;6.354;2023-08-21T03:46:30;102220.00;;;16.70
38114;BMP180;23926;53.222;6.354;2023-08-21T03:48:55;102217.00;;;16.70
38114;BMP180;23926;53.222;6.354;2023-08-21T03:51:21;102229.00;;;16.70
38114;BMP180;23926;53.222;6.354;2023-08-21T03:53:46;102224.00;;;16.70
38114;BMP180;23926;53.222;6.354;2023-08-21T03:56:11;102210.00;;;16.70
38114;BMP180;23926;53.222;6.354;2023-08-21T03:58:37;102211.00;;;16.80
38114;BMP180;23926;53.222;6.354;2023-08-21T04:01:02;102214.00;;;16.80
38114;BMP180;23926;53.222;6.354;2023-08-21T04:03:28;102210.00;;;16.80
38114;BMP180;23926;53.222;6.354;2023-08-21T04:05:54;102209.00;;;16.90
38114;BMP180;23926;53.222;6.354;2023-08-21T04:08:19;102216.00;;;16.90
38114;BMP180;23926;53.222;6.354;2023-08-21T04:10:45;102209.00;;;16.90
38114;BMP180;23926;53.222;6.354;2023-08-21T04:13:10;102218.00;;;16.90
38114;BMP180;23926;53.222;6.354;2023-08-21T04:15:36;102212.00;;;16.80
38114;BMP180;23926;53.222;6.354;2023-08-21T04:18:01;102216.00;;;16.80
38114;BMP180;23926;53.222;6.354;2023-08-21T04:20:26;102219.00;;;16.80
38114;BMP180;23926;53.222;6.354;2023-08-21T04:22:52;102219.00;;;16.80
38114;BMP180;23926;53.222;6.354;2023-08-21T04:25:17;102227.00;;;16.80
38114;BMP180;23926;53.222;6.354;2023-08-21T04:27:43;102220.00;;;16.80
38114;BMP180;23926;53.222;6.354;2023-08-21T04:30:09;102225.00;;;16.80
38114;BMP180;23926;53.222;6.354;2023-08-21T04:32:35;102230.00;;;16.80
38114;BMP180;23926;53.222;6.354;2023-08-21T04:35:00;102232.00;;;16.80
38114;BMP180;23926;53.222;6.354;2023-08-21T04:37:26;102229.00;;;16.80
38114;BMP180;23926;53.222;6.354;2023-08-21T04:39:55;102229.00;;;16.80
38114;BMP180;23926;53.222;6.354;2023-08-21T04:42:21;102234.00;;;16.90
38114;BMP180;23926;53.222;6.354;2023-08-21T04:44:46;102230.00;;;16.90
38114;BMP180;23926;53.222;6.354;2023-08-21T04:47:20;102235.00;;;16.90
38114;BMP180;23926;53.222;6.354;2023-08-21T04:49:47;102228.00;;;16.90
38114;BMP180;23926;53.222;6.354;2023-08-21T04:52:13;102232.00;;;17.00
38114;BMP180;23926;53.222;6.354;2023-08-21T04:54:38;102222.00;;;17.00
38114;BMP180;23926;53.222;6.354;2023-08-21T04:57:03;102221.00;;;17.00
38114;BMP180;23926;53.222;6.354;2023-08-21T04:59:29;102222.00;;;17.00
38114;BMP180;23926;53.222;6.354;2023-08-21T05:01:54;102225.00;;;17.00
38114;BMP180;23926;53.222;6.354;2023-08-21T05:04:20;102227.00;;;17.00
38114;BMP180;23926;53.222;6.354;2023-08-21T05:06:45;102222.00;;;17.00
38114;BMP180;23926;53.222;6.354;2023-08-21T05:09:10;102226.00;;;17.00
38114;BMP180;23926;53.222;6.354;2023-08-21T05:11:36;102226.00;;;17.00
38114;BMP180;23926;53.222;6.354;2023-08-21T05:14:03;102225.00;;;17.00
38114;BMP180;23926;53.222;6.354;2023-08-21T05:16:29;102224.00;;;17.10
38114;BMP180;23926;53.222;6.354;2023-08-21T05:18:55;102229.00;;;17.10
38114;BMP180;23926;53.222;6.354;2023-08-21T05:21:21;102230.00;;;17.10
38114;BMP180;23926;53.222;6.354;2023-08-21T05:23:48;102235.00;;;17.20
38114;BMP180;23926;53.222;6.354;2023-08-21T05:26:13;102248.00;;;17.30
38114;BMP180;23926;53.222;6.354;2023-08-21T05:28:39;102231.00;;;17.40
38114;BMP180;23926;53.222;6.354;2023-08-21T05:31:04;102242.00;;;17.50
38114;BMP180;23926;53.222;6.354;2023-08-21T05:33:29;102234.00;;;17.60
38114;BMP180;23926;53.222;6.354;2023-08-21T05:35:56;102237.00;;;17.70
38114;BMP180;23926;53.222;6.354;2023-08-21T05:38:22;102241.00;;;17.80
38114;BMP180;23926;53.222;6.354;2023-08-21T05:40:48;102254.00;;;18.00
38114;BMP180;23926;53.222;6.354;2023-08-21T05:43:13;102251.00;;;18.10
38114;BMP180;23926;53.222;6.354;2023-08-21T05:45:39;102247.00;;;18.20
38114;BMP180;23926;53.222;6.354;2023-08-21T05:48:04;102255.00;;;18.30
38114;BMP180;23926;53.222;6.354;2023-08-21T05:50:31;102257.00;;;18.40
38114;BMP180;23926;53.222;6.354;2023-08-21T05:52:56;102256.00;;;18.60
38114;BMP180;23926;53.222;6.354;2023-08-21T05:55:23;102254.00;;;18.70
38114;BMP180;23926;53.222;6.354;2023-08-21T05:57:48;102245.00;;;18.80
38114;BMP180;23926;53.222;6.354;2023-08-21T06:00:14;102252.00;;;18.90
38114;BMP180;23926;53.222;6.354;2023-08-21T06:02:41;102248.00;;;18.90
38114;BMP180;23926;53.222;6.354;2023-08-21T06:05:08;102248.00;;;19.10
38114;BMP180;23926;53.222;6.354;2023-08-21T06:07:34;102252.00;;;19.20
38114;BMP180;23926;53.222;6.354;2023-08-21T06:09:59;102257.00;;;19.20
38114;BMP180;23926;53.222;6.354;2023-08-21T06:12:25;102255.00;;;19.40
38114;BMP180;23926;53.222;6.354;2023-08-21T06:14:50;102254.00;;;19.50
38114;BMP180;23926;53.222;6.354;2023-08-21T06:17:16;102266.00;;;19.60
38114;BMP180;23926;53.222;6.354;2023-08-21T06:19:41;102260.00;;;19.70
38114;BMP180;23926;53.222;6.354;2023-08-21T06:22:07;102264.00;;;19.70
38114;BMP180;23926;53.222;6.354;2023-08-21T06:24:32;102268.00;;;19.80
38114;BMP180;23926;53.222;6.354;2023-08-21T06:26:58;102273.00;;;19.90
38114;BMP180;23926;53.222;6.354;2023-08-21T06:29:24;102264.00;;;20.00
38114;BMP180;23926;53.222;6.354;2023-08-21T06:31:49;102270.00;;;20.20
38114;BMP180;23926;53.222;6.354;2023-08-21T06:34:15;102274.00;;;20.30
38114;BMP180;23926;53.222;6.354;2023-08-21T06:36:40;102269.00;;;20.40
38114;BMP180;23926;53.222;6.354;2023-08-21T06:39:06;102270.00;;;20.50
38114;BMP180;23926;53.222;6.354;2023-08-21T06:41:31;102268.00;;;20.70
38114;BMP180;23926;53.222;6.354;2023-08-21T06:43:57;102270.00;;;20.80
38114;BMP180;23926;53.222;6.354;2023-08-21T06:46:23;102277.00;;;20.90
38114;BMP180;23926;53.222;6.354;2023-08-21T06:48:49;102265.00;;;21.10
38114;BMP180;23926;53.222;6.354;2023-08-21T06:51:15;102270.00;;;21.20
38114;BMP180;23926;53.222;6.354;2023-08-21T06:53:41;102270.00;;;21.40
38114;BMP180;23926;53.222;6.354;2023-08-21T06:56:07;102276.00;;;21.50
38114;BMP180;23926;53.222;6.354;2023-08-21T06:58:32;102274.00;;;21.60
38114;BMP180;23926;53.222;6.354;2023-08-21T07:01:00;102268.00;;;21.80
38114;BMP180;23926;53.222;6.354;2023-08-21T07:03:26;102265.00;;;21.90
38114;BMP180;23926;53.222;6.354;2023-08-21T07:05:55;102269.00;;;22.10
38114;BMP180;23926;53.222;6.354;2023-08-21T07:08:22;102267.00;;;22.20
38114;BMP180;23926;53.222;6.354;2023-08-21T07:10:47;102277.00;;;22.40
38114;BMP180;23926;53.222;6.354;2023-08-21T07:13:13;102266.00;;;22.40
38114;BMP180;23926;53.222;6.354;2023-08-21T07:15:38;102276.00;;;22.60
38114;BMP180;23926;53.222;6.354;2023-08-21T07:18:04;102276.00;;;22.80
38114;BMP180;23926;53.222;6.354;2023-08-21T07:20:29;102269.00;;;22.90
38114;BMP180;23926;53.222;6.354;2023-08-21T07:22:55;102282.00;;;23.00
38114;BMP180;23926;53.222;6.354;2023-08-21T07:25:20;102270.00;;;23.00
38114;BMP180;23926;53.222;6.354;2023-08-21T07:27:45;102270.00;;;23.10
38114;BMP180;23926;53.222;6.354;2023-08-21T07:30:11;102263.00;;;23.20
38114;BMP180;23926;53.222;6.354;2023-08-21T07:32:36;102276.00;;;23.20
38114;BMP180;23926;53.222;6.354;2023-08-21T07:35:02;102278.00;;;23.40
38114;BMP180;23926;53.222;6.354;2023-08-21T07:37:28;102275.00;;;23.60
38114;BMP180;23926;53.222;6.354;2023-08-21T07:39:53;102275.00;;;23.70
38114;BMP180;23926;53.222;6.354;2023-08-21T07:42:22;102274.00;;;23.80
38114;BMP180;23926;53.222;6.354;2023-08-21T07:44:48;102279.00;;;23.90
38114;BMP180;23926;53.222;6.354;2023-08-21T07:47:13;102278.00;;;23.90
38114;BMP180;23926;53.222;6.354;2023-08-21T07:49:39;102277.00;;;24.00
38114;BMP180;23926;53.222;6.354;2023-08-21T07:52:04;102280.00;;;24.10
38114;BMP180;23926;53.222;6.354;2023-08-21T07:54:30;102278.00;;;24.20
38114;BMP180;23926;53.222;6.354;2023-08-21T07:56:55;102285.00;;;24.30
38114;BMP180;23926;53.222;6.354;2023-08-21T07:59:21;102278.00;;;24.40
38114;BMP180;23926;53.222;6.354;2023-08-21T08:01:47;102284.00;;;24.60
38114;BMP180;23926;53.222;6.354;2023-08-21T08:04:13;102288.00;;;24.70
38114;BMP180;23926;53.222;6.354;2023-08-21T08:06:38;102284.00;;;24.70
38114;BMP180;23926;53.222;6.354;2023-08-21T08:09:04;102292.00;;;24.60
38114;BMP180;23926;53.222;6.354;2023-08-21T08:11:29;102290.00;;;24.70
38114;BMP180;23926;53.222;6.354;2023-08-21T08:13:56;102283.00;;;24.70
38114;BMP180;23926;53.222;6.354;2023-08-21T08:16:21;102293.00;;;24.80
38114;BMP180;23926;53.222;6.354;2023-08-21T08:18:47;102298.00;;;24.90
38114;BMP180;23926;53.222;6.354;2023-08-21T08:21:13;102301.00;;;25.10
38114;BMP180;23926;53.222;6.354;2023-08-21T08:23:39;102295.00;;;25.20
38114;BMP180;23926;53.222;6.354;2023-08-21T08:26:04;102291.00;;;25.20
38114;BMP180;23926;53.222;6.354;2023-08-21T08:28:30;102298.00;;;25.30
38114;BMP180;23926;53.222;6.354;2023-08-21T08:30:55;102304.00;;;25.30
38114;BMP180;23926;53.222;6.354;2023-08-21T08:33:21;102292.00;;;25.20
38114;BMP180;23926;53.222;6.354;2023-08-21T08:35:46;102296.00;;;25.20
38114;BMP180;23926;53.222;6.354;2023-08-21T08:38:12;102294.00;;;25.40
38114;BMP180;23926;53.222;6.354;2023-08-21T08:40:43;102301.00;;;25.50
38114;BMP180;23926;53.222;6.354;2023-08-21T08:43:10;102295.00;;;25.60
38114;BMP180;23926;53.222;6.354;2023-08-21T08:45:36;102298.00;;;25.50
38114;BMP180;23926;53.222;6.354;2023-08-21T08:48:02;102293.00;;;25.60
38114;BMP180;23926;53.222;6.354;2023-08-21T08:50:32;102300.00;;;25.50
38114;BMP180;23926;53.222;6.354;2023-08-21T08:52:58;102308.00;;;25.60
38114;BMP180;23926;53.222;6.354;2023-08-21T08:55:25;102304.00;;;25.70
38114;BMP180;23926;53.222;6.354;2023-08-21T08:57:52;102301.00;;;25.80
38114;BMP180;23926;53.222;6.354;2023-08-21T09:00:17;102298.00;;;25.60
38114;BMP180;23926;53.222;6.354;2023-08-21T09:02:43;102292.00;;;25.80
38114;BMP180;23926;53.222;6.354;2023-08-21T09:05:08;102293.00;;;25.80
38114;BMP180;23926;53.222;6.354;2023-08-21T09:07:35;102298.00;;;25.60
38114;BMP180;23926;53.222;6.354;2023-08-21T09:10:02;102294.00;;;25.80
38114;BMP180;23926;53.222;6.354;2023-08-21T09:12:31;102295.00;;;26.00
38114;BMP180;23926;53.222;6.354;2023-08-21T09:14:58;102298.00;;;26.30
38114;BMP180;23926;53.222;6.354;2023-08-21T09:17:24;102298.00;;;26.50
38114;BMP180;23926;53.222;6.354;2023-08-21T09:19:51;102301.00;;;26.40
38114;BMP180;23926;53.222;6.354;2023-08-21T09:22:17;102293.00;;;26.40
38114;BMP180;23926;53.222;6.354;2023-08-21T09:25:03;102293.00;;;26.40
38114;BMP180;23926;53.222;6.354;2023-08-21T09:27:31;102284.00;;;26.50
38114;BMP180;23926;53.222;6.354;2023-08-21T09:29:57;102294.00;;;26.80
38114;BMP180;23926;53.222;6.354;2023-08-21T09:32:22;102290.00;;;26.70
38114;BMP180;23926;53.222;6.354;2023-08-21T09:34:48;102291.00;;;26.80
38114;BMP180;23926;53.222;6.354;2023-08-21T09:37:13;102282.00;;;26.80
38114;BMP180;23926;53.222;6.354;2023-08-21T09:39:39;102297.00;;;26.90
38114;BMP180;23926;53.222;6.354;2023-08-21T09:42:05;102284.00;;;26.70
38114;BMP180;23926;53.222;6.354;2023-08-21T09:44:40;102289.00;;;26.90
38114;BMP180;23926;53.222;6.354;2023-08-21T09:47:12;102292.00;;;27.00
38114;BMP180;23926;53.222;6.354;2023-08-21T09:49:38;102289.00;;;27.10
38114;BMP180;23926;53.222;6.354;2023-08-21T09:52:08;102289.00;;;27.20
38114;BMP180;23926;53.222;6.354;2023-08-21T09:54:36;102282.00;;;27.20
38114;BMP180;23926;53.222;6.354;2023-08-21T09:57:03;102277.00;;;27.10
38114;BMP180;23926;53.222;6.354;2023-08-21T09:59:32;102281.00;;;27.10
38114;BMP180;23926;53.222;6.354;2023-08-21T10:02:02;102282.00;;;27.40
38114;BMP180;23926;53.222;6.354;2023-08-21T10:04:32;102292.00;;;27.10
38114;BMP180;23926;53.222;6.354;2023-08-21T10:07:00;102282.00;;;26.80
38114;BMP180;23926;53.222;6.354;2023-08-21T10:09:29;102280.00;;;27.00
38114;BMP180;23926;53.222;6.354;2023-08-21T10:11:55;102282.00;;;27.10
38114;BMP180;23926;53.222;6.354;2023-08-21T10:14:22;102292.00;;;27.20
38114;BMP180;23926;53.222;6.354;2023-08-21T10:16:51;102283.00;;;27.20
38114;BMP180;23926;53.222;6.354;2023-08-21T10:19:17;102286.00;;;27.20
38114;BMP180;23926;53.222;6.354;2023-08-21T10:21:46;102290.00;;;27.30
38114;BMP180;23926;53.222;6.354;2023-08-21T10:24:12;102290.00;;;27.20
38114;BMP180;23926;53.222;6.354;2023-08-21T10:26:38;102285.00;;;27.30
38114;BMP180;23926;53.222;6.354;2023-08-21T10:29:05;102288.00;;;27.00
38114;BMP180;23926;53.222;6.354;2023-08-21T10:31:37;102282.00;;;27.20
38114;BMP180;23926;53.222;6.354;2023-08-21T10:34:09;102290.00;;;27.40
38114;BMP180;23926;53.222;6.354;2023-08-21T10:39:26;102278.00;;;27.60
38114;BMP180;23926;53.222;6.354;2023-08-21T10:50:03;102271.00;;;27.70
38114;BMP180;23926;53.222;6.354;2023-08-21T10:52:35;102281.00;;;27.70
38114;BMP180;23926;53.222;6.354;2023-08-21T10:55:02;102286.00;;;27.70
38114;BMP180;23926;53.222;6.354;2023-08-21T10:57:31;102287.00;;;27.70
38114;BMP180;23926;53.222;6.354;2023-08-21T11:00:08;102283.00;;;27.90
38114;BMP180;23926;53.222;6.354;2023-08-21T11:02:38;102281.00;;;28.00
38114;BMP180;23926;53.222;6.354;2023-08-21T11:05:05;102291.00;;;28.10
38114;BMP180;23926;53.222;6.354;2023-08-21T11:07:36;102282.00;;;28.00
38114;BMP180;23926;53.222;6.354;2023-08-21T11:10:03;102284.00;;;28.10
38114;BMP180;23926;53.222;6.354;2023-08-21T11:12:29;102281.00;;;27.70
38114;BMP180;23926;53.222;6.354;2023-08-21T11:14:54;102290.00;;;27.80
38114;BMP180;23926;53.222;6.354;2023-08-21T11:17:19;102291.00;;;27.70
38114;BMP180;23926;53.222;6.354;2023-08-21T11:19:45;102273.00;;;27.70
38114;BMP180;23926;53.222;6.354;2023-08-21T11:22:13;102282.00;;;27.90
38114;BMP180;23926;53.222;6.354;2023-08-21T11:24:48;102293.00;;;28.20
38114;BMP180;23926;53.222;6.354;2023-08-21T11:27:15;102287.00;;;28.60
38114;BMP180;23926;53.222;6.354;2023-08-21T11:29:50;102290.00;;;28.70
38114;BMP180;23926;53.222;6.354;2023-08-21T11:34:48;102292.00;;;29.10
38114;BMP180;23926;53.222;6.354;2023-08-21T11:37:18;102294.00;;;29.50
38114;BMP180;23926;53.222;6.354;2023-08-21T11:39:45;102285.00;;;29.50
38114;BMP180;23926;53.222;6.354;2023-08-21T11:42:12;102291.00;;;29.60
38114;BMP180;23926;53.222;6.354;2023-08-21T11:44:46;102284.00;;;29.80
38114;BMP180;23926;53.222;6.354;2023-08-21T11:47:12;102279.00;;;29.60
38114;BMP180;23926;53.222;6.354;2023-08-21T11:49:43;102285.00;;;29.20
38114;BMP180;23926;53.222;6.354;2023-08-21T11:52:10;102281.00;;;28.70
38114;BMP180;23926;53.222;6.354;2023-08-21T11:54:37;102274.00;;;28.90
38114;BMP180;23926;53.222;6.354;2023-08-21T11:57:05;102270.00;;;28.70
38114;BMP180;23926;53.222;6.354;2023-08-21T11:59:30;102276.00;;;28.60
38114;BMP180;23926;53.222;6.354;2023-08-21T12:01:56;102274.00;;;28.60
38114;BMP180;23926;53.222;6.354;2023-08-21T12:04:22;102267.00;;;28.60
38114;BMP180;23926;53.222;6.354;2023-08-21T12:06:47;102269.00;;;28.80
38114;BMP180;23926;53.222;6.354;2023-08-21T12:09:13;102264.00;;;28.80
38114;BMP180;23926;53.222;6.354;2023-08-21T12:11:38;102270.00;;;28.90
38114;BMP180;23926;53.222;6.354;2023-08-21T12:14:04;102264.00;;;29.00
38114;BMP180;23926;53.222;6.354;2023-08-21T12:16:30;102250.00;;;29.20
38114;BMP180;23926;53.222;6.354;2023-08-21T12:18:55;102259.00;;;29.10
38114;BMP180;23926;53.222;6.354;2023-08-21T12:21:23;102260.00;;;29.00
38114;BMP180;23926;53.222;6.354;2023-08-21T12:23:48;102259.00;;;29.00
38114;BMP180;23926;53.222;6.354;2023-08-21T12:26:14;102258.00;;;29.10
38114;BMP180;23926;53.222;6.354;2023-08-21T12:28:46;102263.00;;;28.80
38114;BMP180;23926;53.222;6.354;2023-08-21T12:31:12;102257.00;;;28.70
38114;BMP180;23926;53.222;6.354;2023-08-21T12:33:37;102262.00;;;28.90
38114;BMP180;23926;53.222;6.354;2023-08-21T12:36:03;102253.00;;;28.90
38114;BMP180;23926;53.222;6.354;2023-08-21T12:38:28;102257.00;;;29.00
38114;BMP180;23926;53.222;6.354;2023-08-21T12:40:54;102253.00;;;29.00
38114;BMP180;23926;53.222;6.354;2023-08-21T12:43:20;102255.00;;;29.30
38114;BMP180;23926;53.222;6.354;2023-08-21T12:45:46;102257.00;;;29.20
38114;BMP180;23926;53.222;6.354;2023-08-21T12:48:12;102252.00;;;29.40
38114;BMP180;23926;53.222;6.354;2023-08-21T12:50:38;102264.00;;;29.60
38114;BMP180;23926;53.222;6.354;2023-08-21T12:53:03;102256.00;;;29.80
38114;BMP180;23926;53.222;6.354;2023-08-21T12:55:29;102267.00;;;29.40
38114;BMP180;23926;53.222;6.354;2023-08-21T12:57:56;102264.00;;;29.30
38114;BMP180;23926;53.222;6.354;2023-08-21T13:00:21;102255.00;;;29.30
38114;BMP180;23926;53.222;6.354;2023-08-21T13:02:47;102251.00;;;29.20
38114;BMP180;23926;53.222;6.354;2023-08-21T13:05:12;102254.00;;;29.40
38114;BMP180;23926;53.222;6.354;2023-08-21T13:07:38;102250.00;;;29.70
38114;BMP180;23926;53.222;6.354;2023-08-21T13:10:03;102254.00;;;29.30
38114;BMP180;23926;53.222;6.354;2023-08-21T13:12:29;102257.00;;;29.50
38114;BMP180;23926;53.222;6.354;2023-08-21T13:14:54;102245.00;;;29.50
38114;BMP180;23926;53.222;6.354;2023-08-21T13:17:19;102244.00;;;29.80
38114;BMP180;23926;53.222;6.354;2023-08-21T13:19:45;102247.00;;;30.00
38114;BMP180;23926;53.222;6.354;2023-08-21T13:22:10;102242.00;;;29.80
38114;BMP180;23926;53.222;6.354;2023-08-21T13:24:36;102235.00;;;30.00
38114;BMP180;23926;53.222;6.354;2023-08-21T13:27:01;102236.00;;;30.20
38114;BMP180;23926;53.222;6.354;2023-08-21T13:29:27;102244.00;;;30.10
38114;BMP180;23926;53.222;6.354;2023-08-21T13:31:52;102231.00;;;30.00
38114;BMP180;23926;53.222;6.354;2023-08-21T13:34:18;102237.00;;;29.90
38114;BMP180;23926;53.222;6.354;2023-08-21T13:36:43;102234.00;;;29.90
38114;BMP180;23926;53.222;6.354;2023-08-21T13:39:08;102226.00;;;29.90
38114;BMP180;23926;53.222;6.354;2023-08-21T13:41:36;102222.00;;;30.00
38114;BMP180;23926;53.222;6.354;2023-08-21T13:44:02;102221.00;;;29.90
38114;BMP180;23926;53.222;6.354;2023-08-21T13:46:28;102223.00;;;29.80
38114;BMP180;23926;53.222;6.354;2023-08-21T13:48:54;102227.00;;;29.90
38114;BMP180;23926;53.222;6.354;2023-08-21T13:51:19;102230.00;;;29.50
38114;BMP180;23926;53.222;6.354;2023-08-21T13:53:44;102232.00;;;29.60
38114;BMP180;23926;53.222;6.354;2023-08-21T13:56:10;102225.00;;;29.70
38114;BMP180;23926;53.222;6.354;2023-08-21T13:58:35;102225.00;;;29.70
38114;BMP180;23926;53.222;6.354;2023-08-21T14:01:01;102223.00;;;29.70
38114;BMP180;23926;53.222;6.354;2023-08-21T14:03:26;102219.00;;;29.60
38114;BMP180;23926;53.222;6.354;2023-08-21T14:05:52;102211.00;;;29.80
38114;BMP180;23926;53.222;6.354;2023-08-21T14:08:17;102216.00;;;29.60